HOURLY OBS INDEX

030

Upper Carpentaria

GEORGETOWN AIRPORT

Site: 030124
Alt: 301.8m
270km ESE of NORMANTON


  Time     Wind        Temp  DP   Baro     Rain since   Rain past  Vis(m), Cloud(base in m), Weather
  local        km/h                         9am  last   hr   10m    
Thu 15:00    N 15/ 24  36.5 19.9  1004.2    0.0   0.0   0.0   0.0   10000 
Thu 15:30  NNW  6/ 15  37.5 19.9  1003.7    0.0   0.0   0.0   0.0   10000 
Thu 16:00  NNW 13/ 20  35.9 18.9  1004.0    0.0   0.0   0.0   0.0   10000 
Thu 16:30    S  9/ 15  33.9 20.3  1003.6    0.0   0.0   0.0   0.0   10000 
Thu 17:00   SW 11/ 19  34.0 20.7  1003.9    0.0   0.0   0.0   0.0   10000 
Thu 17:19   SW 32/ 41  32.2 19.8  1004.5    0.0   0.0  ----   0.0   10000 
Thu 17:30   SW 28/ 45  29.2 19.8  1004.8    0.0   0.0   0.0   0.0   10000 
Thu 18:00  SSE 15/ 22  29.0 19.0  1005.1    0.0   0.0   0.0   0.0   10000 
Thu 18:00  SSE 15/ 22  29.0 19.0  1005.1    0.0   0.0  ----   0.0   10000 
Thu 18:21  NNW 24/ 37  25.3 22.0  1006.7    2.2   2.2  ----   2.2    5000 
Thu 18:21  NNW 24/ 37  25.3 22.0  1006.7    2.2   0.0  ----   2.2    5000 
Thu 18:21  NNW 24/ 37  25.3 22.0  1006.7    2.2   0.0  ----   2.2    5000 
Thu 18:21  NNW 24/ 37  25.3 22.0  1006.7    2.2   0.0  ----   2.2    5000 
Thu 18:30  NNE 22/ 26  24.8 22.3  1006.4    4.8   2.6   4.8   3.0    4300 
Thu 18:43    N 17/ 26  24.8 22.3  1007.0    5.0   0.2  ----   0.2   10000 
Thu 18:48    N 15/ 20  24.3 22.2  1007.4    6.8   1.8  ----   1.8    5000 
Thu 19:00  WNW 26/ 37  24.9 23.3  1007.2   14.0   7.2  14.0   5.8     900 
Thu 19:30  SSW 20/ 28  24.1 22.9  1007.8   26.8  12.8  22.0   0.6    6000 
Thu 19:39  SSW 19/ 26  24.2 22.1  1008.2   26.8   0.0  ----   0.0   10000 
Thu 20:00    S  6/ 15  24.1 22.7  1009.0   26.8   0.0  12.8   0.0   10000 
Thu 20:00    S  6/ 15  24.1 22.7  1009.0   26.8   0.0  ----   0.0   10000 
Thu 20:00    S  6/ 15  24.1 22.7  1009.0   26.8   0.0  ----   0.0   10000 
Thu 20:30  SSW 17/ 28  24.7 23.7  1009.5   26.8   0.0   0.0   0.0   10000 

HUGHENDEN AIRPORT

Site: 030022
Alt: 316.4m
5km ENE of HUGHENDEN


  Time     Wind        Temp  DP   Baro     Rain since   Rain past  Vis(m), Cloud(base in m), Weather
  local        km/h                         9am  last   hr   10m    
Thu 15:00    S 37/ 52  23.5 19.6  1007.7    6.6   0.0   1.0   0.0   10000|BR 960 OC2160 
Thu 15:04    S 35/ 54  23.4 19.8  1007.7    6.6   0.0  ----   0.0   10000|SC 750 OC 960 OC2160 
Thu 15:30    S 32/ 45  22.7 19.3  1007.4    6.6   0.0   0.0   0.0   10000|SC 960 BR1230 OC1560 
Thu 16:00  SSE 22/ 30  22.5 19.9  1007.0    8.2   1.6   1.6   0.4   10000|SC1470 BR2880 OC3450 
Thu 16:30  ESE 17/ 20  22.9 19.9  1007.0    8.4   0.2   1.8   0.0   10000|SC1050 BR1590 BR2310 
Thu 17:00   NE 17/ 24  23.2 20.0  1007.2    9.0   0.6   0.8   0.0   10000|SC2610 SC3450 
Thu 17:30  ENE 22/ 28  23.3 19.7  1006.3    9.0   0.0   0.6   0.0   10000 
Thu 18:00   NE 24/ 33  23.3 19.7  1006.8    9.0   0.0   0.0   0.0   10000 
Thu 18:00   NE 24/ 33  23.3 19.7  1006.8    9.0   0.0  ----   0.0   10000 
Thu 18:30   NE 19/ 28  23.2 19.8  1007.6    9.0   0.0   0.0   0.0   10000|SC3450 
Thu 19:00    E 13/ 15  23.3 19.9  1007.6    9.2   0.2   0.2   0.0   10000|SC 360 BR3750 
Thu 19:30    E 17/ 26  23.3 19.9  1007.1    9.2   0.0   0.2   0.0   -----|SC 360 
Thu 20:00    E 15/ 20  23.3 19.7  1007.1    9.2   0.0   0.0   0.0   ----- 
Thu 20:00    E 15/ 20  23.3 19.7  1007.1    9.2   0.0  ----   0.0   ----- 
Thu 20:00    E 15/ 20  23.3 19.7  1007.1    9.2   0.0  ----   0.0   ----- 
Thu 20:30   NE 13/ 17  23.4 19.5  1007.5    9.2   0.0   0.0   0.0   ----- 

RICHMOND AIRPORT

Site: 030161
Alt: 206.3m
112km W of HUGHENDEN


  Time     Wind        Temp  DP   Baro     Rain since   Rain past  Vis(m), Cloud(base in m), Weather
  local        km/h                         9am  last   hr   10m    
Thu 15:00  SSW 24/ 28  24.2 21.9  1007.1    1.2   0.0   0.0   0.0   10000|SC 270 
Thu 15:30    S 20/ 28  24.1 22.5  1005.9    1.2   0.0   0.0   0.0   10000|SC2040 BR3600 
Thu 16:00   SE 15/ 19  24.5 23.1  1005.3    1.6   0.4   0.4   0.0   10000|BR3000 
Thu 16:30    E 20/ 30  24.6 22.8  1004.0    1.6   0.0   0.4   0.0   10000|SC2130 BR2790 OC3300 
Thu 17:00    E 13/ 19  25.3 22.4  1004.1    1.6   0.0   0.0   0.0   10000 
Thu 17:30   NE 17/ 24  25.5 22.2  1004.9    1.6   0.0   0.0   0.0   10000 
Thu 18:00  ENE 15/ 24  24.9 21.8  1006.0    1.6   0.0   0.0   0.0   10000|SC 390 
Thu 18:00  ENE 15/ 24  24.9 21.8  1006.0    1.6   0.0  ----   0.0   10000|SC 390 
Thu 18:30   NE 19/ 28  24.6 21.7  1005.9    1.6   0.0   0.0   0.0   10000 
Thu 19:00   NE 17/ 24  24.4 21.9  1005.8    1.6   0.0   0.0   0.0   10000 
Thu 19:30   NE 17/ 26  24.4 21.9  1006.4    1.6   0.0   0.0   0.0   10000 
Thu 20:00  NNE 15/ 20  24.5 21.8  1006.5    1.6   0.0   0.0   0.0   10000|OC2670 OC3600 
Thu 20:00  NNE 15/ 20  24.5 21.8  1006.5    1.6   0.0  ----   0.0   10000|OC2670 OC3600 
Thu 20:00  NNE 15/ 20  24.5 21.8  1006.5    1.6   0.0  ----   0.0   10000|OC2670 OC3600 
Thu 20:30    N 15/ 19  24.5 22.0  1007.2    1.6   0.0   0.0   0.0   10000